Aeroporto :
LOGIN :

Iscrizione | Disclaimer

   EN    FR    IT 

 










Sommario :    VFR   VFR Marginale   IFR   IFR Intensivo   IFR Molto Intensivo
Visibilità : 
Base nubi : 
>= 8 km
>= 3000ft
5 / 8 km
1000 / 3000 ft
1500m / 5 km
500 / 1000 ft
800 / 1500m
200 / 500 ft
< 800m
< 200 ft
Simboli :   Temporali  Nebbia  Neve Forte  Precipitazioni Forti  Vento > 20 kt
SIGMETs :   Varie  Temporali  Ghiacco  Turbolenza  Onda orograficha  Ceneri Vulcaniche







- Altitudine del aeroporto : 12 ft
- Codice IATA : NCE
- Carte del aeroporto


LFMN - Nice

ULTIMO METAR :
  • 190230Z 34008KT CAVOK 07/M01 Q1013 NOSIG

METARs OBSOLETI :
  • 190200Z 33008KT 9999 FEW093 BKN260 07/M01 Q1013 NOSIG
  • 190130Z 33008KT 9999 FEW093 BKN260 07/M01 Q1013 NOSIG
  • 190100Z 34008KT 9999 BKN093 BKN260 07/M01 Q1013 NOSIG
  • 190030Z 34007KT 9999 BKN093 BKN260 07/M00 Q1013 NOSIG
  • 190000Z 34008KT 9999 BKN093 BKN260 07/M01 Q1013 NOSIG

TAF TAF LFMN
Valido dal 19 a 03 ore il 20 a 09 ore UTC


190200Z 1903/2009 33013KT CAVOK
BECMG 1911/1913 24010KT
PROB30
TEMPO 1916/1922 4000 RA BKN014
BECMG 1919/1921 34008KT
ATIS : +33 4 93 17 21 16
Nessun NOTAM noto per questo aeroporto.



MetMap, La meteo Aeronautica in un colpo d'occhio ! - Copyright ORBIFLY Dicembre 2007 - Disclaimer

ORBIFLY MET'MAP TEAM :

Programmazione e sviluppo : Alexandra Zaïnal
Concezione e sviluppo : Baudouin d'Aumeries
Co-Programmazione e sviluppo : Marc-Olivier Méhu
Supporto tecnico e logistico : Manuel Goepfert
Aiuto per la traduzione : Arnaldo La Scala

Contatto : metmap@orbifly.com




FONTI E CREDITI :

   NOAA